Terminal Aerodrome Forecast
Issued by NWS Wakefield, VA

Home | Current Version | Previous Version | Text Only | Print | Product List | Glossary On
Versions: 1 2 3 4 5 6 7 8 9 10 11 12 13 14 15 16
000
FTUS41 KAKQ 250100 AAA
TAFSBY
TAF AMD
KSBY 250117Z 2501/2524 22010KT P6SM BKN100
      TEMPO 2502/2505 4SM SHRA BKN030
     FM250500 25005KT 5SM -DZ BR BKN007
     FM251300 01005KT 6SM BR SCT007 OVC012
     FM251700 02006KT 5SM -RA BR OVC020=

USA.gov is the U.S. government's official web portal to all federal, state and local government web resources and services.